Time;durP1;ratioP1;P1;durP2;ratioP2;P2;SDS_P1;SDS_P2;PMS_P1;PMS_P2;Temp;Humidity;BMP_temperature;BMP_pressure;BME280_temperature;BME280_humidity;BME280_pressure;Samples;Min_cycle;Max_cycle;Signal;HPM_P1;HPM_P2
2022/06/09 00:01:36;;;;;;;11.33;8.35;;;;;;;17.56;100.00;100548.41;1641649;87;21324;-84
2022/06/09 00:04:14;;;;;;;12.70;8.38;;;;;;;17.52;100.00;100551.05;1641575;86;20982;-84
2022/06/09 00:06:59;;;;;;;9.80;8.20;;;;;;;17.48;100.00;100555.30;1640627;87;21113;-84
2022/06/09 00:09:37;;;;;;;10.95;8.20;;;;;;;17.47;100.00;100556.28;1640447;86;21023;-86
2022/06/09 00:12:05;;;;;;;10.58;8.28;;;;;;;17.46;100.00;100553.34;1639584;86;21117;-84
2022/06/09 00:14:35;;;;;;;9.38;8.40;;;;;;;17.46;100.00;100559.09;1641464;86;21248;-84
2022/06/09 00:17:03;;;;;;;11.45;9.00;;;;;;;17.42;100.00;100551.20;1641364;86;21160;-85
2022/06/09 00:19:30;;;;;;;9.55;8.05;;;;;;;17.39;100.00;100557.59;1641420;86;21117;-88
2022/06/09 00:21:58;;;;;;;10.70;8.28;;;;;;;17.37;100.00;100558.27;1641601;86;21069;-89
2022/06/09 00:24:25;;;;;;;10.20;8.25;;;;;;;17.34;100.00;100551.99;1641868;86;21117;-90
2022/06/09 00:26:52;;;;;;;8.85;7.47;;;;;;;17.34;100.00;100552.84;1641338;86;21102;-88
2022/06/09 00:29:19;;;;;;;8.83;7.92;;;;;;;17.32;100.00;100551.33;1641735;86;21583;-86
2022/06/09 00:31:46;;;;;;;9.93;8.03;;;;;;;17.32;100.00;100551.33;1641448;86;21320;-89
2022/06/09 00:34:13;;;;;;;10.88;8.10;;;;;;;17.32;100.00;100549.53;1641715;86;21069;-87
2022/06/09 00:36:40;;;;;;;9.33;8.43;;;;;;;17.34;100.00;100558.58;1641464;86;21061;-86
2022/06/09 00:39:09;;;;;;;11.73;9.20;;;;;;;17.35;100.00;100555.77;1641490;86;21906;-87
2022/06/09 00:41:39;;;;;;;12.65;9.28;;;;;;;17.35;100.00;100554.96;1641325;86;21081;-85
2022/06/09 00:44:17;;;;;;;11.03;8.95;;;;;;;17.32;100.00;100546.06;1641429;86;21133;-85
2022/06/09 00:46:50;;;;;;;9.90;8.50;;;;;;;17.29;100.00;100548.53;1636164;87;21093;-86
2022/06/09 00:49:25;;;;;;;10.03;8.90;;;;;;;17.29;100.00;100548.53;1634216;86;21117;-85
2022/06/09 00:51:57;;;;;;;12.63;8.90;;;;;;;17.28;100.00;100541.61;1634692;86;21245;-84
2022/06/09 00:54:29;;;;;;;9.90;8.30;;;;;;;17.19;100.00;100547.36;1634326;86;21548;-85
2022/06/09 00:57:04;;;;;;;12.68;8.88;;;;;;;17.12;100.00;100546.83;1636507;86;21081;-85
2022/06/09 00:59:34;;;;;;;11.70;9.00;;;;;;;17.04;100.00;100552.91;1634760;86;21555;-87
2022/06/09 01:02:06;;;;;;;9.63;8.63;;;;;;;16.95;100.00;100554.67;1636373;86;21030;-85
2022/06/09 01:04:34;;;;;;;11.50;9.15;;;;;;;16.86;100.00;100556.42;1634155;86;21116;-84
2022/06/09 01:07:06;;;;;;;10.93;8.95;;;;;;;16.78;100.00;100555.58;1636448;86;21539;-85
2022/06/09 01:09:34;;;;;;;10.68;9.08;;;;;;;16.68;100.00;100546.47;1631856;86;21123;-88
2022/06/09 01:12:06;;;;;;;11.45;9.20;;;;;;;16.61;100.00;100550.70;1636305;86;21287;-85
2022/06/09 01:14:34;;;;;;;11.30;10.18;;;;;;;16.56;100.00;100551.17;1631307;87;21086;-85
2022/06/09 01:17:33;;;;;;;10.80;9.70;;;;;;;16.53;100.00;100552.82;1636516;87;21156;-85
2022/06/09 01:20:40;;;;;;;10.65;9.53;;;;;;;16.48;100.00;100559.86;1636999;86;21042;-85
2022/06/09 01:24:00;;;;;;;13.53;9.85;;;;;;;16.45;100.00;100554.09;1636442;87;21041;-85
2022/06/09 01:27:04;;;;;;;10.53;9.48;;;;;;;16.40;100.00;100550.10;1636418;86;21027;-84
2022/06/09 01:29:43;;;;;;;11.80;9.48;;;;;;;16.37;100.00;100553.06;1636379;86;21586;-85
2022/06/09 01:32:24;;;;;;;11.10;9.43;;;;;;;16.38;100.00;100553.37;1636315;86;21238;-84
2022/06/09 01:35:00;;;;;;;;;;;;;;;16.42;100.00;100558.33;1638088;86;21058;-87
2022/06/09 01:37:39;;;;;;;12.63;9.98;;;;;;;16.43;100.00;100556.84;1634042;87;20207;-84
2022/06/09 01:40:12;;;;;;;10.93;9.83;;;;;;;16.40;100.00;100557.98;1635466;86;21117;-85
2022/06/09 01:42:48;;;;;;;11.50;10.35;;;;;;;16.37;100.00;100560.95;1636392;86;21078;-84
2022/06/09 01:45:26;;;;;;;13.50;11.38;;;;;;;16.31;100.00;100552.84;1637399;87;21765;-88
2022/06/09 01:48:02;;;;;;;14.53;11.25;;;;;;;16.28;100.00;100557.08;1641455;86;21512;-85
2022/06/09 01:50:47;;;;;;;14.58;11.88;;;;;;;16.26;100.00;100553.81;1636352;86;21701;-85
2022/06/09 01:53:41;;;;;;;14.55;11.50;;;;;;;16.26;100.00;100554.62;1641522;86;21031;-84
2022/06/09 01:56:49;;;;;;;16.85;11.60;;;;;;;16.27;100.00;100554.11;1641522;86;21073;-85
2022/06/09 01:59:27;;;;;;;12.28;10.82;;;;;;;16.27;100.00;100557.59;1641382;87;21838;-85
2022/06/09 02:02:06;;;;;;;12.20;10.60;;;;;;;16.29;100.00;100553.01;1638480;86;21030;-84
2022/06/09 02:04:45;;;;;;;11.48;10.10;;;;;;;16.35;100.00;100556.80;1641577;86;21029;-85
2022/06/09 02:07:15;;;;;;;14.25;10.45;;;;;;;16.38;100.00;100553.88;1640359;86;21026;-85
2022/06/09 02:09:43;;;;;;;11.28;10.13;;;;;;;16.40;100.00;100555.36;1641232;86;21072;-85
2022/06/09 02:12:15;;;;;;;10.65;9.03;;;;;;;16.44;100.00;100560.31;1641870;87;22266;-85
2022/06/09 02:14:50;;;;;;;10.88;9.53;;;;;;;16.44;100.00;100559.00;1639496;86;21026;-85
2022/06/09 02:17:19;;;;;;;15.98;10.45;;;;;;;16.43;100.00;100563.41;1641262;86;21645;-86
2022/06/09 02:19:49;;;;;;;13.85;10.88;;;;;;;16.40;100.00;100564.55;1641682;86;21069;-85
2022/06/09 02:22:17;;;;;;;13.22;11.40;;;;;;;16.39;100.00;100564.72;1641365;86;21057;-85
2022/06/09 02:24:44;;;;;;;16.20;11.60;;;;;;;16.38;100.00;100568.33;1641519;86;21183;-85
2022/06/09 02:27:12;;;;;;;16.70;12.00;;;;;;;16.34;100.00;100573.06;1641311;86;21429;-85
2022/06/09 02:29:39;;;;;;;13.78;11.28;;;;;;;16.31;100.00;100568.11;1641450;87;21037;-85
2022/06/09 02:32:07;;;;;;;11.80;10.53;;;;;;;16.29;100.00;100566.14;1641074;86;21721;-85
2022/06/09 02:34:35;;;;;;;14.73;10.85;;;;;;;16.31;100.00;100562.04;1641766;86;22016;-85
2022/06/09 02:37:02;;;;;;;16.12;11.15;;;;;;;16.34;100.00;100569.13;1641331;86;21104;-84
2022/06/09 02:39:30;;;;;;;12.40;10.58;;;;;;;16.42;100.00;100565.73;1641688;86;21117;-84
2022/06/09 02:41:58;;;;;;;15.58;10.85;;;;;;;16.48;100.00;100569.05;1641632;86;21100;-87
2022/06/09 02:44:25;;;;;;;17.80;10.80;;;;;;;16.55;100.00;100571.39;1641607;86;21604;-90
2022/06/09 02:46:53;;;;;;;25.37;12.05;;;;;;;16.62;100.00;100562.87;1641499;86;21147;-86
2022/06/09 02:49:21;;;;;;;18.12;12.33;;;;;;;16.71;100.00;100567.20;1641348;86;21804;-85
2022/06/09 02:51:49;;;;;;;20.25;13.70;;;;;;;16.80;100.00;100566.73;1641770;86;21535;-85
2022/06/09 02:54:16;;;;;;;20.37;13.05;;;;;;;16.88;100.00;100572.03;1641516;86;21098;-84
2022/06/09 02:56:43;;;;;;;21.62;14.75;;;;;;;16.94;100.00;100574.56;1642013;86;21896;-84
2022/06/09 02:59:11;;;;;;;25.32;14.73;;;;;;;16.99;100.00;100573.11;1641413;86;21041;-85
2022/06/09 03:01:40;;;;;;;20.37;14.68;;;;;;;17.03;100.00;100568.36;1641608;86;21039;-84
2022/06/09 03:04:08;;;;;;;23.70;16.48;;;;;;;17.07;100.00;100568.86;1641598;86;21018;-85
2022/06/09 03:06:35;;;;;;;24.25;16.48;;;;;;;17.11;100.00;100575.44;1641934;86;21034;-84
2022/06/09 03:09:04;;;;;;;23.62;15.03;;;;;;;17.13;100.00;100580.89;1641723;86;21046;-85
2022/06/09 03:11:33;;;;;;;23.47;15.55;;;;;;;17.14;100.00;100574.66;1641637;86;21607;-84
2022/06/09 03:14:00;;;;;;;28.52;17.98;;;;;;;17.18;100.00;100578.59;1641634;86;21130;-84
2022/06/09 03:16:27;;;;;;;26.45;16.00;;;;;;;17.21;100.00;100572.19;1641845;86;21058;-84
2022/06/09 03:18:54;;;;;;;25.82;17.45;;;;;;;17.24;100.00;100576.30;1641643;86;21057;-84
2022/06/09 03:21:22;;;;;;;27.17;18.45;;;;;;;17.28;100.00;100582.40;1641599;86;20990;-86
2022/06/09 03:23:51;;;;;;;28.12;18.62;;;;;;;17.33;100.00;100583.23;1641659;86;21579;-84
2022/06/09 03:26:18;;;;;;;33.58;19.45;;;;;;;17.38;100.00;100585.39;1641376;86;21448;-85
2022/06/09 03:28:46;;;;;;;41.28;22.90;;;;;;;17.42;100.00;100577.52;1641723;86;20962;-84
2022/06/09 03:31:13;;;;;;;33.08;20.15;;;;;;;17.46;100.00;100574.88;1641773;86;21142;-84
2022/06/09 03:33:40;;;;;;;35.75;22.85;;;;;;;17.50;100.00;100577.54;1641805;86;21070;-85
2022/06/09 03:36:09;;;;;;;46.55;25.82;;;;;;;17.55;100.00;100576.55;1641706;86;21022;-84
2022/06/09 03:38:40;;;;;;;44.20;26.20;;;;;;;17.62;100.00;100580.17;1641720;87;21284;-84
2022/06/09 03:41:06;;;;;;;46.23;27.80;;;;;;;17.66;100.00;100581.52;1639545;86;21445;-84
2022/06/09 03:43:34;;;;;;;37.50;24.80;;;;;;;17.73;100.00;100582.17;1641658;86;21041;-85
2022/06/09 03:46:03;;;;;;;34.75;24.40;;;;;;;17.79;100.00;100578.88;1641693;86;21041;-86
2022/06/09 03:48:31;;;;;;;36.77;24.72;;;;;;;17.88;100.00;100576.58;1641586;86;21145;-84
2022/06/09 03:50:58;;;;;;;35.17;22.87;;;;;;;17.95;100.00;100569.70;1641596;86;21190;-85
2022/06/09 03:53:25;;;;;;;36.00;23.25;;;;;;;18.03;100.00;100562.77;1641383;86;21631;-84
2022/06/09 03:55:52;;;;;;;31.37;22.37;;;;;;;18.13;100.00;100565.56;1641757;86;21033;-85
2022/06/09 03:58:19;;;;;;;34.38;23.35;;;;;;;18.25;100.00;100566.55;1641362;86;21049;-84
2022/06/09 04:00:48;;;;;;;37.28;23.52;;;;;;;18.35;100.00;100566.36;1641727;86;20974;-84
2022/06/09 04:03:15;;;;;;;29.30;22.62;;;;;;;18.41;100.00;100567.84;1641577;86;21230;-84
2022/06/09 04:05:42;;;;;;;34.23;23.98;;;;;;;18.51;100.00;100568.96;1641394;86;21156;-85
2022/06/09 04:08:12;;;;;;;33.33;23.40;;;;;;;18.59;100.00;100567.62;1641410;86;21543;-84
2022/06/09 04:10:41;;;;;;;33.05;22.87;;;;;;;18.69;100.00;100566.61;1641801;86;21547;-84
2022/06/09 04:13:08;;;;;;;41.55;23.55;;;;;;;18.76;100.00;100566.25;1641376;86;21053;-84
2022/06/09 04:15:37;;;;;;;34.03;23.25;;;;;;;18.81;100.00;100569.19;1641498;86;21336;-85
2022/06/09 04:18:05;;;;;;;37.98;23.98;;;;;;;18.86;100.00;100568.20;1641291;86;20982;-85
2022/06/09 04:20:33;;;;;;;34.90;24.00;;;;;;;18.89;100.00;100567.03;1641395;86;21109;-85
2022/06/09 04:23:00;;;;;;;32.75;21.62;;;;;;;18.95;100.00;100566.37;1641655;86;22250;-84
2022/06/09 04:25:27;;;;;;;33.10;22.80;;;;;;;19.06;100.00;100574.40;1641331;86;21084;-84
2022/06/09 04:27:55;;;;;;;31.77;23.05;;;;;;;19.17;100.00;100562.15;1642830;86;21222;-86
2022/06/09 04:30:23;;;;;;;32.95;23.32;;;;;;;19.24;100.00;100559.62;1639852;87;20987;-84
2022/06/09 04:32:50;;;;;;;35.40;23.05;;;;;;;19.31;100.00;100563.20;1617999;88;21602;-84
2022/06/09 04:35:17;;;;;;;34.55;24.40;;;;;;;19.40;100.00;100553.44;1618770;87;21041;-84
2022/06/09 04:38:00;;;;;;;35.20;23.67;;;;;;;19.50;100.00;100551.39;1618856;87;21040;-84
2022/06/09 04:40:40;;;;;;;34.65;23.65;;;;;;;19.57;100.00;100550.17;1618648;87;21194;-84
2022/06/09 04:43:10;;;;;;;36.30;24.27;;;;;;;19.65;100.00;100554.08;1618737;87;21107;-85
2022/06/09 04:45:39;;;;;;;34.20;25.17;;;;;;;19.69;100.00;100552.73;1618784;87;21032;-87
2022/06/09 04:48:09;;;;;;;30.75;23.83;;;;;;;19.75;100.00;100548.55;1603817;88;21108;-84
2022/06/09 04:50:38;;;;;;;37.78;24.32;;;;;;;19.82;100.00;100554.78;1602977;88;21089;-84
2022/06/09 04:53:07;;;;;;;34.25;24.47;;;;;;;19.92;100.00;100553.23;1602989;88;21168;-86
2022/06/09 04:55:34;;;;;;;35.13;24.12;;;;;;;20.06;100.00;100555.60;1617552;87;21063;-84
2022/06/09 04:58:01;;;;;;;39.27;24.40;;;;;;;20.20;100.00;100555.80;1601554;89;21542;-85
2022/06/09 05:00:29;;;;;;;39.18;24.25;;;;;;;20.32;100.00;100559.14;1601552;89;21139;-86
2022/06/09 05:02:59;;;;;;;37.98;25.15;;;;;;;20.45;100.00;100567.77;1601309;89;21037;-84
2022/06/09 05:05:35;;;;;;;35.43;22.75;;;;;;;20.57;100.00;100567.30;1601437;89;21180;-87
2022/06/09 05:08:03;;;;;;;35.60;24.32;;;;;;;20.69;100.00;100568.50;1601278;89;21064;-84
2022/06/09 05:10:32;;;;;;;32.55;23.02;;;;;;;20.82;100.00;100571.02;1601475;89;21068;-84
2022/06/09 05:13:01;;;;;;;35.00;23.18;;;;;;;20.92;100.00;100560.98;1594911;89;21112;-83
2022/06/09 05:15:28;;;;;;;35.55;22.25;;;;;;;21.02;100.00;100563.33;1584193;89;21101;-84
2022/06/09 05:17:58;;;;;;;30.10;21.30;;;;;;;21.13;100.00;100561.53;1577844;89;21193;-85
2022/06/09 05:20:24;;;;;;;28.25;21.50;;;;;;;21.27;100.00;100559.86;1576701;89;21037;-86
2022/06/09 05:22:52;;;;;;;32.45;22.40;;;;;;;21.43;100.00;100564.89;1577832;91;21121;-84
2022/06/09 05:25:19;;;;;;;33.33;22.20;;;;;;;21.57;100.00;100567.20;1577550;91;21562;-86
2022/06/09 05:27:47;;;;;;;32.15;21.20;;;;;;;21.67;100.00;100572.17;1577841;89;21087;-85
2022/06/09 05:30:21;;;;;;;31.23;22.02;;;;;;;21.75;100.00;100573.89;1577719;89;21550;-84
2022/06/09 05:32:49;;;;;;;32.93;21.95;;;;;;;21.86;100.00;100576.53;1577657;89;21083;-85
2022/06/09 05:35:17;;;;;;;29.67;21.33;;;;;;;21.96;100.00;100574.38;1577632;89;21040;-85
2022/06/09 05:46:06;;;;;;;26.02;19.73;;;;;;;22.31;100.00;100570.43;1589943;88;21107;-90
2022/06/09 05:48:35;;;;;;;30.90;22.05;;;;;;;22.42;100.00;100569.62;1603189;88;21138;-85
2022/06/09 05:51:03;;;;;;;38.55;22.37;;;;;;;22.52;100.00;100577.53;1603278;89;21047;-86
2022/06/09 05:53:31;;;;;;;32.45;22.90;;;;;;;22.62;100.00;100579.02;1578677;89;21055;-85
2022/06/09 05:55:58;;;;;;;29.67;21.55;;;;;;;22.72;100.00;100578.16;1603367;89;21162;-85
2022/06/09 05:58:25;;;;;;;33.55;22.52;;;;;;;22.85;100.00;100576.08;1602277;88;20997;-86
2022/06/09 06:00:52;;;;;;;28.15;21.90;;;;;;;22.99;100.00;100580.42;1590043;89;21100;-85
2022/06/09 06:03:20;;;;;;;33.90;21.57;;;;;;;23.09;100.00;100576.05;1603290;89;21505;-85
2022/06/09 06:08:34;;;;;;;32.17;21.82;;;;;;;23.21;100.00;100575.00;1603378;89;21207;-86
2022/06/09 06:11:01;;;;;;;28.62;20.82;;;;;;;23.26;100.00;100576.56;1603280;89;21665;-85
2022/06/09 06:13:30;;;;;;;27.87;20.65;;;;;;;23.30;100.00;100579.11;1603476;89;21059;-86
2022/06/09 06:15:57;;;;;;;35.48;21.50;;;;;;;23.39;100.00;100584.24;1603242;89;21087;-86
2022/06/09 06:18:24;;;;;;;31.10;21.55;;;;;;;23.46;100.00;100578.43;1603610;89;21100;-85
2022/06/09 06:20:55;;;;;;;28.90;20.88;;;;;;;23.52;100.00;100578.95;1603137;89;21196;-85
2022/06/09 06:23:24;;;;;;;31.35;21.10;;;;;;;23.60;100.00;100575.29;1603459;89;21625;-85
2022/06/09 06:25:54;;;;;;;26.77;19.60;;;;;;;23.71;100.00;100568.55;1603307;89;21578;-86
2022/06/09 06:28:22;;;;;;;36.38;20.37;;;;;;;23.80;100.00;100572.65;1603279;89;21040;-85
2022/06/09 06:30:50;;;;;;;26.12;20.08;;;;;;;23.91;100.00;100568.06;1603429;89;21142;-86
2022/06/09 06:33:18;;;;;;;29.87;19.48;;;;;;;24.07;100.00;100579.33;1603289;89;22015;-85
2022/06/09 06:35:46;;;;;;;27.90;19.35;;;;;;;24.20;100.00;100574.48;1595223;88;21060;-86
2022/06/09 06:38:15;;;;;;;27.50;20.12;;;;;;;24.30;100.00;100574.08;1593152;89;21084;-87
2022/06/09 06:40:43;;;;;;;24.57;18.17;;;;;;;24.37;100.00;100562.38;1603420;89;21020;-86
2022/06/09 06:43:12;;;;;;;24.25;17.25;;;;;;;24.48;100.00;100562.78;1603220;89;21609;-86
2022/06/09 06:45:40;;;;;;;26.80;17.40;;;;;;;24.54;100.00;100560.11;1603496;89;21205;-85
2022/06/09 06:48:08;;;;;;;24.95;16.97;;;;;;;24.65;100.00;100567.12;1603227;88;21037;-85
2022/06/09 06:50:37;;;;;;;37.50;19.12;;;;;;;24.75;100.00;100566.20;1601230;89;21099;-86
2022/06/09 06:53:05;;;;;;;25.85;17.07;;;;;;;24.85;100.00;100570.57;1597188;88;21503;-86
2022/06/09 06:55:32;;;;;;;27.55;17.75;;;;;;;24.95;100.00;100572.77;1602103;89;21538;-85
2022/06/09 06:57:59;;;;;;;19.87;16.23;;;;;;;25.05;100.00;100574.97;1595418;89;21832;-86
2022/06/09 07:00:26;;;;;;;27.70;17.07;;;;;;;25.13;100.00;100580.05;1588995;89;20992;-86
2022/06/09 07:02:53;;;;;;;24.12;16.57;;;;;;;25.19;100.00;100569.91;1588602;88;21047;-85
2022/06/09 07:05:21;;;;;;;19.23;15.13;;;;;;;25.28;100.00;100570.45;1595219;88;21591;-86
2022/06/09 07:07:49;;;;;;;21.15;15.85;;;;;;;25.38;100.00;100569.98;1614962;88;21083;-87
2022/06/09 07:10:18;;;;;;;19.90;14.87;;;;;;;25.50;100.00;100571.47;1616651;87;21210;-85
2022/06/09 07:12:45;;;;;;;21.90;15.20;;;;;;;25.60;100.00;100571.81;1652570;85;21082;-84
2022/06/09 07:15:16;;;;;;;16.67;12.60;;;;;;;25.71;100.00;100571.63;1664207;85;21005;-87
2022/06/09 07:17:43;;;;;;;22.73;12.78;;;;;;;25.83;100.00;100567.23;1664118;85;21134;-85
2022/06/09 07:20:13;;;;;;;19.20;13.70;;;;;;;25.93;100.00;100565.90;1664233;85;21055;-86
2022/06/09 07:22:40;;;;;;;17.02;12.30;;;;;;;26.02;100.00;100555.25;1646276;85;21120;-89
2022/06/09 07:25:11;;;;;;;17.52;11.90;;;;;;;26.11;100.00;100560.64;1632240;87;21077;-87
2022/06/09 07:27:38;;;;;;;15.85;10.85;;;;;;;26.23;100.00;100555.92;1632371;87;21652;-85
2022/06/09 07:30:06;;;;;;;19.40;11.48;;;;;;;26.39;100.00;100551.84;1632349;87;21062;-84
2022/06/09 07:32:34;;;;;;;21.05;11.43;;;;;;;26.51;88.15;100554.58;1632380;87;21073;-85
2022/06/09 07:35:01;;;;;;;20.52;10.58;;;;;;;26.60;87.17;100555.92;1632266;87;21147;-85
2022/06/09 07:37:28;;;;;;;19.42;10.05;;;;;;;26.70;85.30;100554.88;1632468;87;21611;-87
2022/06/09 07:39:55;;;;;;;22.73;10.20;;;;;;;26.77;86.55;100560.15;1651610;85;21040;-84
2022/06/09 07:42:22;;;;;;;22.32;10.13;;;;;;;26.81;73.54;100565.86;1664693;85;21574;-85
2022/06/09 07:44:49;;;;;;;15.28;9.63;;;;;;;26.81;76.70;100570.70;1664857;85;21622;-85
2022/06/09 07:47:17;;;;;;;16.45;8.60;;;;;;;26.84;86.83;100566.75;1663904;85;21186;-85
2022/06/09 07:49:45;;;;;;;14.07;8.18;;;;;;;26.87;81.80;100566.31;1657864;86;21052;-85
2022/06/09 07:52:12;;;;;;;18.02;9.28;;;;;;;26.92;79.50;100563.23;1657786;85;21064;-84
2022/06/09 07:54:40;;;;;;;17.70;9.08;;;;;;;27.02;74.08;100565.39;1657815;86;21061;-84
2022/06/09 07:57:07;;;;;;;18.00;9.08;;;;;;;27.13;76.24;100564.31;1657788;86;21566;-84
2022/06/09 07:59:35;;;;;;;19.70;8.73;;;;;;;27.23;80.24;100557.91;1657998;85;21234;-86
2022/06/09 08:02:02;;;;;;;19.30;9.80;;;;;;;27.34;71.98;100563.81;1657469;86;21013;-85
2022/06/09 08:04:30;;;;;;;14.40;8.83;;;;;;;27.42;70.53;100561.86;1657725;85;21506;-84
2022/06/09 08:06:57;;;;;;;16.32;8.05;;;;;;;27.49;75.79;100563.40;1657766;86;21065;-85
2022/06/09 08:09:24;;;;;;;17.27;8.23;;;;;;;27.58;73.09;100566.57;1657760;85;21056;-85
2022/06/09 08:11:53;;;;;;;15.25;7.60;;;;;;;27.64;66.96;100561.63;1657814;85;21013;-86
2022/06/09 08:14:20;;;;;;;15.10;7.70;;;;;;;27.70;68.85;100562.04;1638380;86;20987;-85
2022/06/09 08:16:48;;;;;;;16.60;8.13;;;;;;;27.77;69.11;100563.28;1607629;89;21064;-84
2022/06/09 08:19:15;;;;;;;11.80;6.78;;;;;;;27.80;62.68;100564.67;1607373;87;21045;-85
2022/06/09 08:21:42;;;;;;;12.07;7.05;;;;;;;27.88;72.87;100558.17;1615196;88;21051;-85
2022/06/09 08:24:10;;;;;;;12.63;6.30;;;;;;;27.96;68.09;100561.84;1623421;88;22011;-85
2022/06/09 08:26:38;;;;;;;13.68;5.58;;;;;;;28.02;67.57;100563.58;1607328;89;20986;-85
2022/06/09 08:29:06;;;;;;;10.53;5.55;;;;;;;28.08;64.24;100564.55;1607404;88;21012;-85
2022/06/09 08:31:33;;;;;;;11.43;5.20;;;;;;;28.13;63.34;100561.97;1623560;87;21119;-85
2022/06/09 08:34:01;;;;;;;7.28;5.08;;;;;;;28.23;69.48;100557.36;1615729;87;21237;-85
2022/06/09 08:36:28;;;;;;;10.35;5.70;;;;;;;28.29;67.22;100559.09;1618723;86;20981;-85
2022/06/09 08:38:55;;;;;;;5.97;5.37;;;;;;;28.36;63.20;100557.64;1633907;87;21111;-85
2022/06/09 08:41:55;;;;;;;8.55;5.37;;;;;;;28.42;55.68;100566.06;1596856;87;21052;-85
2022/06/09 08:44:51;;;;;;;9.30;6.12;;;;;;;28.44;55.35;100559.95;1607644;88;21087;-85
2022/06/09 08:47:27;;;;;;;10.10;5.20;;;;;;;28.42;57.38;100560.70;1591587;88;21140;-85
2022/06/09 08:50:24;;;;;;;14.98;5.50;;;;;;;28.48;59.39;100558.45;1620578;86;21896;-85
2022/06/09 08:53:05;;;;;;;13.40;5.33;;;;;;;28.54;55.61;100558.83;1633650;86;21033;-87
2022/06/09 08:55:48;;;;;;;12.15;5.33;;;;;;;28.50;52.78;100548.29;1600867;88;21064;-85
2022/06/09 08:58:26;;;;;;;8.33;4.87;;;;;;;28.49;52.36;100553.35;1623661;87;21074;-85
2022/06/09 09:01:31;;;;;;;10.80;5.75;;;;;;;28.55;53.09;100550.26;1605619;88;21599;-84
2022/06/09 09:04:06;;;;;;;4.78;4.05;;;;;;;28.62;50.53;100546.41;1616925;87;21184;-86
2022/06/09 09:07:06;;;;;;;3.85;3.55;;;;;;;28.68;51.68;100550.01;1558131;89;21562;-85
2022/06/09 09:09:36;;;;;;;3.12;2.80;;;;;;;28.74;48.49;100547.74;1617431;87;21201;-84
2022/06/09 09:12:47;;;;;;;2.98;2.10;;;;;;;28.86;48.24;100543.67;1606128;87;21042;-87
2022/06/09 09:15:23;;;;;;;5.05;2.75;;;;;;;28.93;43.68;100544.34;1589635;89;21002;-85
2022/06/09 09:18:07;;;;;;;3.12;2.80;;;;;;;28.98;45.64;100540.11;1626291;86;21181;-87
2022/06/09 09:20:59;;;;;;;5.10;3.33;;;;;;;29.09;45.87;100536.58;1584636;89;21053;-85
2022/06/09 09:23:41;;;;;;;3.40;3.10;;;;;;;29.20;46.01;100543.76;1611106;86;21805;-87
2022/06/09 09:26:48;;;;;;;6.37;3.30;;;;;;;29.22;50.42;100530.91;1605455;87;21058;-85
2022/06/09 09:29:42;;;;;;;5.37;3.98;;;;;;;29.33;51.04;100541.84;1606035;87;21089;-85
2022/06/09 09:32:18;;;;;;;3.50;3.00;;;;;;;29.43;52.85;100532.63;1620884;85;21382;-89
2022/06/09 09:34:48;;;;;;;3.35;3.05;;;;;;;29.51;51.88;100526.03;1639960;86;20958;-84
2022/06/09 09:37:38;;;;;;;4.15;3.60;;;;;;;29.59;51.40;100538.52;1644353;86;21048;-84
2022/06/09 09:40:25;;;;;;;5.20;2.85;;;;;;;29.64;51.00;100531.59;1606944;87;21049;-84
2022/06/09 09:42:57;;;;;;;6.28;3.77;;;;;;;29.71;51.10;100530.90;1644983;86;21030;-88
2022/06/09 09:45:43;;;;;;;6.22;3.60;;;;;;;29.78;53.07;100527.52;1618510;87;21151;-85
2022/06/09 09:48:23;;;;;;;4.95;3.47;;;;;;;29.86;48.64;100520.92;1614347;86;22194;-85
2022/06/09 09:51:06;;;;;;;5.92;4.35;;;;;;;29.90;45.38;100524.22;1601339;88;21092;-84
2022/06/09 09:53:40;;;;;;;5.72;4.30;;;;;;;29.90;46.82;100518.02;1605177;87;21085;-87
2022/06/09 09:56:27;;;;;;;5.62;4.37;;;;;;;29.95;43.57;100511.44;1617435;87;21013;-84
2022/06/09 09:59:00;;;;;;;4.37;3.60;;;;;;;29.97;43.31;100513.86;1598122;87;21156;-84
2022/06/09 10:10:17;;;;;;;5.47;3.47;;;;;;;29.36;49.15;100507.84;1600105;88;21000;-85
2022/06/09 10:12:46;;;;;;;4.35;3.40;;;;;;;29.51;50.22;100506.75;1601672;88;21100;-84
2022/06/09 10:15:20;;;;;;;4.08;3.00;;;;;;;29.69;47.52;100508.34;1623234;87;21135;-86
2022/06/09 10:18:18;;;;;;;7.05;3.87;;;;;;;29.86;47.68;100498.92;1603305;88;21617;-85
2022/06/09 10:21:07;;;;;;;5.83;3.62;;;;;;;30.03;45.71;100501.61;1606743;87;21456;-84
2022/06/09 10:23:57;;;;;;;5.47;3.25;;;;;;;30.20;42.52;100504.78;1601646;87;21602;-86
2022/06/09 10:26:32;;;;;;;7.10;3.37;;;;;;;30.32;46.66;100503.31;1521060;94;21846;-89
2022/06/09 10:29:08;;;;;;;3.90;3.50;;;;;;;30.40;45.38;100498.02;1604889;88;21685;-86
2022/06/09 10:32:09;;;;;;;5.05;3.35;;;;;;;30.43;43.77;100492.95;1604048;88;21109;-84
2022/06/09 10:34:54;;;;;;;4.83;3.53;;;;;;;30.52;41.82;100490.12;1602693;87;21032;-85
2022/06/09 10:37:54;;;;;;;5.28;3.40;;;;;;;30.35;38.24;100496.91;1598962;88;21089;-86
2022/06/09 10:40:53;;;;;;;6.87;3.60;;;;;;;30.12;40.39;100489.90;1604346;88;21177;-84
2022/06/09 10:43:31;;;;;;;4.05;3.70;;;;;;;30.10;41.73;100475.11;1589605;88;21077;-85
2022/06/09 10:46:06;;;;;;;4.50;3.33;;;;;;;30.27;44.78;100479.89;1590002;89;21062;-84
2022/06/09 10:57:49;;;;;;;3.90;3.50;;;;;;;30.60;41.70;100470.59;1598899;88;21002;-85
2022/06/09 11:00:28;;;;;;;3.83;3.52;;;;;;;30.44;42.77;100474.43;1576645;90;21513;-84
2022/06/09 11:02:59;;;;;;;12.58;3.87;;;;;;;30.34;42.50;100469.77;1596978;88;21051;-87
2022/06/09 11:05:38;;;;;;;5.28;3.37;;;;;;;30.40;39.86;100463.92;1596384;89;21614;-85
2022/06/09 11:08:24;;;;;;;3.37;3.08;;;;;;;30.50;40.97;100471.27;1617816;86;21627;-85
2022/06/09 11:11:14;;;;;;;4.58;3.40;;;;;;;30.64;41.04;100470.38;1634770;86;21125;-86
2022/06/09 11:13:58;;;;;;;4.62;3.10;;;;;;;30.81;42.24;100474.30;1622521;86;21093;-85
2022/06/09 11:16:33;;;;;;;4.78;3.45;;;;;;;30.91;39.44;100464.16;1594568;88;21137;-84
2022/06/09 11:19:40;;;;;;;5.28;3.75;;;;;;;30.89;41.99;100464.43;1581993;89;21083;-85
2022/06/09 11:22:47;;;;;;;3.37;3.08;;;;;;;30.98;41.18;100463.42;1598591;89;21180;-84
2022/06/09 11:25:47;;;;;;;3.25;2.90;;;;;;;31.02;37.90;100465.06;1579241;88;21131;-86
2022/06/09 11:28:50;;;;;;;4.70;3.30;;;;;;;30.97;42.51;100468.52;1583171;89;21009;-87
2022/06/09 11:31:52;;;;;;;5.08;2.95;;;;;;;31.02;39.80;100466.41;1552388;91;21112;-84
2022/06/09 11:34:49;;;;;;;3.50;2.87;;;;;;;30.97;40.49;100471.20;1553523;88;21246;-89
2022/06/09 11:37:51;;;;;;;4.70;2.98;;;;;;;30.78;40.73;100468.91;1586969;88;21370;-84
2022/06/09 11:40:33;;;;;;;3.10;2.90;;;;;;;30.71;38.07;100476.36;1597367;88;21042;-85
2022/06/09 11:43:37;;;;;;;4.70;2.87;;;;;;;30.74;38.23;100469.12;1560147;90;21078;-86
2022/06/09 11:46:19;;;;;;;4.53;3.30;;;;;;;30.95;38.47;100470.13;1607209;88;21403;-86
2022/06/09 11:48:52;;;;;;;3.72;2.50;;;;;;;31.21;38.69;100465.54;1636563;85;21030;-85
2022/06/09 11:51:23;;;;;;;4.40;2.50;;;;;;;31.34;39.24;100466.44;1647958;86;21092;-84
2022/06/09 11:53:55;;;;;;;4.20;2.77;;;;;;;31.43;41.44;100466.75;1618608;87;21088;-84
2022/06/09 11:56:45;;;;;;;2.58;2.37;;;;;;;31.45;39.65;100471.34;1614812;87;21083;-90
2022/06/09 11:59:21;;;;;;;2.80;2.60;;;;;;;31.44;35.65;100466.52;1616106;88;21098;-84
2022/06/09 12:02:41;;;;;;;3.33;2.58;;;;;;;31.51;36.26;100464.13;1641626;86;21092;-86
2022/06/09 12:05:59;;;;;;;3.20;2.35;;;;;;;31.73;38.63;100462.67;1561910;90;21246;-85
2022/06/09 12:09:02;;;;;;;5.85;2.75;;;;;;;31.95;37.43;100467.87;1614736;87;21527;-88
2022/06/09 12:12:15;;;;;;;4.75;3.62;;;;;;;32.05;36.93;100463.09;1609725;87;21113;-84